Time;durP1;ratioP1;P1;durP2;ratioP2;P2;SDS_P1;SDS_P2;PMS_P1;PMS_P2;Temp;Humidity;BMP_temperature;BMP_pressure;BME280_temperature;BME280_humidity;BME280_pressure;Samples;Min_cycle;Max_cycle;Signal;HPM_P1;HPM_P2
2022/08/27 00:00:28;;;;;;;16.40;10.00;;;;;;;;;;5070631;28;20049;-65
2022/08/27 00:03:02;;;;;;;15.30;10.60;;;;;;;;;;5070176;28;20044;-54
2022/08/27 00:05:30;;;;;;;20.60;10.50;;;;;;;;;;5073841;28;20048;-64
2022/08/27 00:07:57;;;;;;;19.55;10.85;;;;;;;;;;5071775;28;20044;-62
2022/08/27 00:10:32;;;;;;;16.40;11.43;;;;;;;;;;5070912;28;20055;-62
2022/08/27 00:13:00;;;;;;;14.95;10.18;;;;;;;;;;5071916;28;20042;-62
2022/08/27 00:15:28;;;;;;;14.98;10.45;;;;;;;;;;5072262;28;20044;-62
2022/08/27 00:18:02;;;;;;;310.52;19.45;;;;;;;;;;5070155;28;20055;-63
2022/08/27 00:20:30;;;;;;;;;;;;;;;;;;5074916;28;20086;-62
2022/08/27 00:22:57;;;;;;;18.77;10.40;;;;;;;;;;5070342;28;19927;-62
2022/08/27 00:25:31;;;;;;;23.63;11.85;;;;;;;;;;5066364;28;20044;-46
2022/08/27 00:28:05;;;;;;;18.92;11.77;;;;;;;;;;5068284;28;20064;-46
2022/08/27 00:30:38;;;;;;;21.25;10.93;;;;;;;;;;5075628;28;20075;-46
2022/08/27 00:33:06;;;;;;;19.08;11.02;;;;;;;;;;5074319;28;20066;-46
2022/08/27 00:35:33;;;;;;;14.35;9.95;;;;;;;;;;5069225;28;20064;-46
2022/08/27 00:38:08;;;;;;;21.85;11.57;;;;;;;;;;5075392;28;20047;-46
2022/08/27 00:40:36;;;;;;;33.78;14.93;;;;;;;;;;5073895;28;20055;-47
2022/08/27 00:43:04;;;;;;;15.38;10.85;;;;;;;;;;5068979;28;20048;-63
2022/08/27 00:45:40;;;;;;;16.40;10.75;;;;;;;;;;5067070;28;20056;-66
2022/08/27 00:48:10;;;;;;;15.93;10.48;;;;;;;;;;5071992;28;20127;-66
2022/08/27 00:50:48;;;;;;;15.32;10.65;;;;;;;;;;5072254;28;20052;-65
2022/08/27 00:53:17;;;;;;;17.70;11.18;;;;;;;;;;5072801;28;20041;-65
2022/08/27 00:55:57;;;;;;;14.45;8.68;;;;;;;;;;5072536;28;20051;-66
2022/08/27 00:58:27;;;;;;;15.57;9.38;;;;;;;;;;5062085;28;20053;-65
2022/08/27 01:01:02;;;;;;;14.40;8.90;;;;;;;;;;5069459;28;20040;-63
2022/08/27 01:03:30;;;;;;;13.82;8.52;;;;;;;;;;5055257;28;20411;-57
2022/08/27 01:06:00;;;;;;;12.60;8.85;;;;;;;;;;5068993;28;20041;-56
2022/08/27 01:08:37;;;;;;;15.77;9.30;;;;;;;;;;5061754;28;20059;-57
2022/08/27 01:11:05;;;;;;;11.63;7.93;;;;;;;;;;5070635;28;20432;-57
2022/08/27 01:13:33;;;;;;;13.32;10.00;;;;;;;;;;5061828;28;20045;-58
2022/08/27 01:16:29;;;;;;;18.58;10.00;;;;;;;;;;5071523;28;20580;-58
2022/08/27 01:18:59;;;;;;;18.92;10.02;;;;;;;;;;5069639;28;20055;-57
2022/08/27 01:21:43;;;;;;;13.82;9.80;;;;;;;;;;5072987;28;20048;-63
2022/08/27 01:24:30;;;;;;;12.45;10.07;;;;;;;;;;5071387;28;20049;-63
2022/08/27 01:27:12;;;;;;;11.40;9.52;;;;;;;;;;5068098;28;20052;-64
2022/08/27 01:29:41;;;;;;;13.95;10.50;;;;;;;;;;5075282;28;20530;-63
2022/08/27 01:32:34;;;;;;;13.98;10.18;;;;;;;;;;5068696;28;20047;-63
2022/08/27 01:35:03;;;;;;;18.38;9.35;;;;;;;;;;5071602;28;20049;-63
2022/08/27 01:37:38;;;;;;;12.75;8.40;;;;;;;;;;5072479;28;20059;-63
2022/08/27 01:40:07;;;;;;;8.82;7.72;;;;;;;;;;5068892;28;20518;-46
2022/08/27 01:42:36;;;;;;;12.43;6.85;;;;;;;;;;5064567;28;20119;-55
2022/08/27 01:45:18;;;;;;;8.95;7.18;;;;;;;;;;5071642;28;20056;-57
2022/08/27 01:47:46;;;;;;;9.13;7.22;;;;;;;;;;5067315;28;20055;-57
2022/08/27 01:50:24;;;;;;;11.35;8.75;;;;;;;;;;5074095;28;20048;-58
2022/08/27 01:52:52;;;;;;;13.50;9.23;;;;;;;;;;5073269;28;20040;-58
2022/08/27 01:55:26;;;;;;;12.32;9.07;;;;;;;;;;5070136;28;20780;-57
2022/08/27 01:57:54;;;;;;;14.05;9.93;;;;;;;;;;5067025;28;20051;-63
2022/08/27 02:00:27;;;;;;;13.38;9.45;;;;;;;;;;5070890;28;20043;-63
2022/08/27 02:03:00;;;;;;;17.30;10.98;;;;;;;;;;5073094;28;20048;-63
2022/08/27 02:05:29;;;;;;;13.27;9.75;;;;;;;;;;5072216;28;20434;-63
2022/08/27 02:07:56;;;;;;;11.25;8.80;;;;;;;;;;5071975;28;20040;-63
2022/08/27 02:10:32;;;;;;;13.35;10.15;;;;;;;;;;5071892;28;20079;-63
2022/08/27 02:13:00;;;;;;;12.40;9.35;;;;;;;;;;5070929;28;20049;-62
2022/08/27 02:15:27;;;;;;;11.20;9.27;;;;;;;;;;5070515;28;20052;-63
2022/08/27 02:18:02;;;;;;;11.48;9.80;;;;;;;;;;5068944;28;20050;-46
2022/08/27 02:20:30;;;;;;;13.73;9.30;;;;;;;;;;5072984;28;20084;-64
2022/08/27 02:22:57;;;;;;;11.77;8.52;;;;;;;;;;5074101;28;20498;-64
2022/08/27 02:25:32;;;;;;;13.10;8.82;;;;;;;;;;5074078;28;20055;-63
2022/08/27 02:28:13;;;;;;;196.13;13.93;;;;;;;;;;5070686;28;20053;-63
2022/08/27 02:30:47;;;;;;;38.85;7.75;;;;;;;;;;5064745;28;20052;-63
2022/08/27 02:33:15;;;;;;;8.90;7.22;;;;;;;;;;5066912;28;20515;-63
2022/08/27 02:35:43;;;;;;;14.48;9.20;;;;;;;;;;5071697;28;20037;-64
2022/08/27 02:38:16;;;;;;;11.75;8.18;;;;;;;;;;5071907;28;20534;-63
2022/08/27 02:40:43;;;;;;;9.40;7.65;;;;;;;;;;5070618;28;20047;-63
2022/08/27 02:43:11;;;;;;;6.78;5.70;;;;;;;;;;5071987;28;20564;-63
2022/08/27 02:45:51;;;;;;;8.18;6.70;;;;;;;;;;5067686;28;20045;-63
2022/08/27 02:48:19;;;;;;;11.25;8.00;;;;;;;;;;5069726;28;20059;-63
2022/08/27 02:50:54;;;;;;;13.15;7.88;;;;;;;;;;5073201;28;20064;-63
2022/08/27 02:53:22;;;;;;;13.73;8.90;;;;;;;;;;5066402;28;20051;-63
2022/08/27 02:55:51;;;;;;;11.93;9.05;;;;;;;;;;5069731;28;20063;-63
2022/08/27 02:58:25;;;;;;;12.90;8.32;;;;;;;;;;5072215;28;20044;-63
2022/08/27 03:00:52;;;;;;;;;;;;;;;;;;5068173;28;20044;-62
2022/08/27 03:03:26;;;;;;;11.43;8.50;;;;;;;;;;5068440;28;20371;-62
2022/08/27 03:06:00;;;;;;;11.45;8.13;;;;;;;;;;5068833;28;20040;-63
2022/08/27 03:08:34;;;;;;;10.60;8.25;;;;;;;;;;5070398;28;20059;-63
2022/08/27 03:11:19;;;;;;;11.63;7.68;;;;;;;;;;5068503;28;20067;-62
2022/08/27 03:13:46;;;;;;;12.15;8.23;;;;;;;;;;5070186;28;20055;-62
2022/08/27 03:16:20;;;;;;;13.50;7.20;;;;;;;;;;5072736;28;20048;-57
2022/08/27 03:18:48;;;;;;;13.07;7.45;;;;;;;;;;5064807;28;20097;-56
2022/08/27 03:21:18;;;;;;;9.98;8.98;;;;;;;;;;5072732;28;20044;-53
2022/08/27 03:23:53;;;;;;;17.90;8.37;;;;;;;;;;5070757;28;20411;-53
2022/08/27 03:26:20;;;;;;;15.02;9.07;;;;;;;;;;5068301;28;20503;-55
2022/08/27 03:28:48;;;;;;;9.43;8.07;;;;;;;;;;5055092;28;20526;-56
2022/08/27 03:31:25;;;;;;;13.50;8.07;;;;;;;;;;5047323;28;20044;-56
2022/08/27 03:33:54;;;;;;;10.77;8.32;;;;;;;;;;5043242;28;20052;-62
2022/08/27 03:36:29;;;;;;;8.57;7.47;;;;;;;;;;5055039;28;20045;-56
2022/08/27 03:38:57;;;;;;;12.82;8.38;;;;;;;;;;5049586;28;20518;-53
2022/08/27 03:41:24;;;;;;;11.30;8.35;;;;;;;;;;5052583;28;20045;-56
2022/08/27 03:44:18;;;;;;;9.05;8.07;;;;;;;;;;5055611;28;20052;-55
2022/08/27 03:46:48;;;;;;;13.25;8.98;;;;;;;;;;5044814;28;20424;-54
2022/08/27 03:49:22;;;;;;;10.93;8.63;;;;;;;;;;5046176;28;20622;-55
2022/08/27 03:51:50;;;;;;;13.75;8.32;;;;;;;;;;5052907;28;20099;-48
2022/08/27 03:54:18;;;;;;;9.80;7.40;;;;;;;;;;5054559;28;20056;-56
2022/08/27 03:56:52;;;;;;;11.27;8.32;;;;;;;;;;5052567;28;20401;-62
2022/08/27 03:59:20;;;;;;;12.77;10.00;;;;;;;;;;5057952;28;20056;-62
2022/08/27 04:01:47;;;;;;;12.27;9.50;;;;;;;;;;5053106;28;20060;-63
2022/08/27 04:04:22;;;;;;;13.52;9.50;;;;;;;;;;5052906;28;20528;-63
2022/08/27 04:06:50;;;;;;;14.02;9.43;;;;;;;;;;5051309;28;20068;-62
2022/08/27 04:09:17;;;;;;;13.88;9.15;;;;;;;;;;5054004;28;20056;-63
2022/08/27 04:11:51;;;;;;;10.30;8.23;;;;;;;;;;5052780;28;20056;-63
2022/08/27 04:14:19;;;;;;;14.20;8.98;;;;;;;;;;5051712;28;20057;-58
2022/08/27 04:16:56;;;;;;;14.27;8.50;;;;;;;;;;5055126;28;20060;-58
2022/08/27 04:19:32;;;;;;;12.82;9.48;;;;;;;;;;5050715;28;20052;-58
2022/08/27 04:22:01;;;;;;;17.48;9.95;;;;;;;;;;5054690;28;20051;-57
2022/08/27 04:24:29;;;;;;;17.13;8.90;;;;;;;;;;5055542;28;20056;-58
2022/08/27 04:27:03;;;;;;;13.23;9.88;;;;;;;;;;5048678;28;20041;-58
2022/08/27 04:29:37;;;;;;;12.32;9.55;;;;;;;;;;5068977;28;20511;-63
2022/08/27 04:32:13;;;;;;;11.07;7.28;;;;;;;;;;5069602;28;20056;-56
2022/08/27 04:34:41;;;;;;;11.30;7.75;;;;;;;;;;5070740;28;20040;-57
2022/08/27 04:37:08;;;;;;;13.82;8.30;;;;;;;;;;5070519;28;20055;-58
2022/08/27 04:39:50;;;;;;;15.20;9.55;;;;;;;;;;5076769;28;20147;-56
2022/08/27 04:42:18;;;;;;;12.10;9.48;;;;;;;;;;5072557;28;20066;-58
2022/08/27 04:44:52;;;;;;;13.75;8.27;;;;;;;;;;5073453;28;20063;-57
2022/08/27 04:47:20;;;;;;;13.52;10.50;;;;;;;;;;5067707;28;20048;-57
2022/08/27 04:49:47;;;;;;;16.20;8.10;;;;;;;;;;5073794;28;20056;-66
2022/08/27 04:52:23;;;;;;;10.32;8.20;;;;;;;;;;5068608;28;20075;-66
2022/08/27 04:54:50;;;;;;;12.68;9.18;;;;;;;;;;5073571;28;20056;-66
2022/08/27 04:57:18;;;;;;;18.58;9.80;;;;;;;;;;5069367;28;20052;-65
2022/08/27 04:59:52;;;;;;;12.88;8.95;;;;;;;;;;5071439;28;20803;-66
2022/08/27 05:02:19;;;;;;;;;;;;;;;;;;5072166;28;20040;-66
2022/08/27 05:04:46;;;;;;;11.95;9.65;;;;;;;;;;5075902;28;19927;-66
2022/08/27 05:07:20;;;;;;;15.98;9.95;;;;;;;;;;5075799;28;20051;-66
2022/08/27 05:09:48;;;;;;;18.23;9.48;;;;;;;;;;5072296;28;20056;-65
2022/08/27 05:12:15;;;;;;;11.45;9.43;;;;;;;;;;5072720;28;20040;-47
2022/08/27 05:14:49;;;;;;;11.48;8.95;;;;;;;;;;5072637;28;20507;-47
2022/08/27 05:17:17;;;;;;;13.80;9.48;;;;;;;;;;5074331;28;20048;-48
2022/08/27 05:19:44;;;;;;;12.82;9.73;;;;;;;;;;5070325;28;20075;-47
2022/08/27 05:22:17;;;;;;;11.82;9.00;;;;;;;;;;5066054;28;20047;-50
2022/08/27 05:24:44;;;;;;;9.57;8.40;;;;;;;;;;5071628;28;20063;-47
2022/08/27 05:27:16;;;;;;;9.75;7.93;;;;;;;;;;5069144;28;20049;-57
2022/08/27 05:29:57;;;;;;;12.25;7.57;;;;;;;;;;5054729;28;20052;-56
2022/08/27 05:32:24;;;;;;;14.00;7.93;;;;;;;;;;5050171;28;20045;-63
2022/08/27 05:34:58;;;;;;;11.05;8.05;;;;;;;;;;5050579;28;20420;-62
2022/08/27 05:37:26;;;;;;;8.95;7.40;;;;;;;;;;5052847;28;20140;-63
2022/08/27 05:39:53;;;;;;;8.75;7.65;;;;;;;;;;5054930;28;20048;-62
2022/08/27 05:42:31;;;;;;;8.20;7.40;;;;;;;;;;5052956;28;20144;-63
2022/08/27 05:44:58;;;;;;;9.45;6.82;;;;;;;;;;5054237;28;20069;-63
2022/08/27 05:47:26;;;;;;;9.25;7.47;;;;;;;;;;5051459;28;20417;-57
2022/08/27 05:50:10;;;;;;;13.60;7.82;;;;;;;;;;5049110;28;20131;-64
2022/08/27 05:52:37;;;;;;;8.70;7.65;;;;;;;;;;5047953;28;20059;-65
2022/08/27 05:55:11;;;;;;;13.85;8.25;;;;;;;;;;5052990;28;20040;-65
2022/08/27 05:57:38;;;;;;;13.45;7.78;;;;;;;;;;5052685;28;20053;-66
2022/08/27 06:02:59;;;;;;;7.30;6.57;;;;;;;;;;5049644;28;20063;-66
2022/08/27 06:05:27;;;;;;;9.68;7.35;;;;;;;;;;5053087;28;20511;-62
2022/08/27 06:07:54;;;;;;;7.50;6.75;;;;;;;;;;5051203;28;20045;-65
2022/08/27 06:10:29;;;;;;;11.75;7.20;;;;;;;;;;5051226;28;20045;-46
2022/08/27 06:12:56;;;;;;;9.63;6.78;;;;;;;;;;5054116;28;20048;-46
2022/08/27 06:15:23;;;;;;;9.60;5.88;;;;;;;;;;5056204;28;20048;-49
2022/08/27 06:17:57;;;;;;;7.70;6.45;;;;;;;;;;5048046;28;20048;-47
2022/08/27 06:20:25;;;;;;;10.32;5.55;;;;;;;;;;5047421;28;20045;-45
2022/08/27 06:22:52;;;;;;;7.25;5.85;;;;;;;;;;5050087;28;20411;-46
2022/08/27 06:25:26;;;;;;;10.00;5.75;;;;;;;;;;5047054;28;20052;-56
2022/08/27 06:28:01;;;;;;;7.75;5.38;;;;;;;;;;5054177;28;20056;-64
2022/08/27 06:30:36;;;;;;;8.63;5.65;;;;;;;;;;5074445;28;20508;-64
2022/08/27 06:33:03;;;;;;;;;;;;;;;;;;5065170;28;20468;-64
2022/08/27 06:35:30;;;;;;;7.20;5.53;;;;;;;;;;5070019;28;20379;-63
2022/08/27 06:38:04;;;;;;;12.73;5.90;;;;;;;;;;5072909;28;20179;-64
2022/08/27 06:40:32;;;;;;;7.75;5.45;;;;;;;;;;5069173;28;20055;-64
2022/08/27 06:42:59;;;;;;;;;;;;;;;;;;5071393;28;20062;-65
2022/08/27 06:45:37;;;;;;;6.60;5.45;;;;;;;;;;5073038;28;19924;-64
2022/08/27 06:48:04;;;;;;;7.63;5.28;;;;;;;;;;5072488;28;20044;-65
2022/08/27 06:50:36;;;;;;;7.45;5.13;;;;;;;;;;5073342;28;20051;-65
2022/08/27 06:53:10;;;;;;;6.05;4.97;;;;;;;;;;5068774;28;20067;-63
2022/08/27 06:55:37;;;;;;;;;;;;;;;;;;5067924;28;20540;-65
2022/08/27 06:58:04;;;;;;;8.80;5.65;;;;;;;;;;5069358;28;19930;-65
2022/08/27 07:00:40;;;;;;;8.90;5.50;;;;;;;;;;5072189;28;20075;-64
2022/08/27 07:03:12;;;;;;;8.98;5.80;;;;;;;;;;5070849;28;20495;-48
2022/08/27 07:05:39;;;;;;;;;;;;;;;;;;5069289;28;20049;-45
2022/08/27 07:08:14;;;;;;;8.90;5.38;;;;;;;;;;5063220;28;19920;-49
2022/08/27 07:10:41;;;;;;;11.38;5.50;;;;;;;;;;5069491;28;20491;-48
2022/08/27 07:13:09;;;;;;;8.05;6.22;;;;;;;;;;5070537;28;20048;-48
2022/08/27 07:15:42;;;;;;;8.32;5.90;;;;;;;;;;5068605;28;20071;-44
2022/08/27 07:18:10;;;;;;;;;;;;;;;;;;5067535;28;20056;-48
2022/08/27 07:20:40;;;;;;;7.07;6.07;;;;;;;;;;5067173;28;19921;-48
2022/08/27 07:23:13;;;;;;;8.23;5.95;;;;;;;;;;5068589;28;20497;-61
2022/08/27 07:25:42;;;;;;;8.32;5.43;;;;;;;;;;5066846;28;20048;-59
2022/08/27 07:28:09;;;;;;;11.98;5.25;;;;;;;;;;5074666;28;20044;-58
2022/08/27 07:30:49;;;;;;;8.80;5.00;;;;;;;;;;5072228;28;20059;-58
2022/08/27 07:33:16;;;;;;;9.07;5.10;;;;;;;;;;5068833;28;20048;-58
2022/08/27 07:35:50;;;;;;;7.65;5.10;;;;;;;;;;5067552;28;20055;-58
2022/08/27 07:38:18;;;;;;;;;;;;;;;;;;5067446;28;20052;-58
2022/08/27 07:40:45;;;;;;;6.95;4.88;;;;;;;;;;5063482;28;19924;-65
2022/08/27 07:46:05;;;;;;;10.43;4.90;;;;;;;;;;5072864;28;20060;-64
2022/08/27 07:48:39;;;;;;;8.13;4.75;;;;;;;;;;5069614;28;20144;-64
2022/08/27 07:51:12;;;;;;;5.40;4.45;;;;;;;;;;5068328;28;20050;-64
2022/08/27 07:53:47;;;;;;;6.28;4.55;;;;;;;;;;5070689;28;20047;-64
2022/08/27 07:56:14;;;;;;;10.20;4.20;;;;;;;;;;5066578;28;20052;-65
2022/08/27 07:58:42;;;;;;;9.10;4.82;;;;;;;;;;5069094;28;20049;-65
2022/08/27 08:01:17;;;;;;;10.98;4.70;;;;;;;;;;5068695;28;20043;-62
2022/08/27 08:03:44;;;;;;;5.57;4.07;;;;;;;;;;5072910;28;20052;-48
2022/08/27 08:06:13;;;;;;;6.30;4.05;;;;;;;;;;5069157;28;20546;-46
2022/08/27 08:08:46;;;;;;;11.55;4.35;;;;;;;;;;5065107;28;20315;-47
2022/08/27 08:11:16;;;;;;;5.97;4.05;;;;;;;;;;5064470;28;20060;-45
2022/08/27 08:13:43;;;;;;;7.40;4.13;;;;;;;;;;5071054;28;20102;-47
2022/08/27 08:16:18;;;;;;;6.70;3.70;;;;;;;;;;5070156;28;20122;-49
2022/08/27 08:18:45;;;;;;;5.85;3.80;;;;;;;;;;5073730;28;20431;-48
2022/08/27 08:21:13;;;;;;;5.07;3.83;;;;;;;;;;5042869;28;20055;-50
2022/08/27 08:23:48;;;;;;;5.50;3.50;;;;;;;;;;5043132;28;20057;-64
2022/08/27 08:26:15;;;;;;;;;;;;;;;;;;5071473;28;20048;-64
2022/08/27 08:28:42;;;;;;;5.43;3.40;;;;;;;;;;5052419;28;19943;-62
2022/08/27 08:31:23;;;;;;;4.18;3.60;;;;;;;;;;5072718;28;20306;-62
2022/08/27 08:33:51;;;;;;;5.63;4.07;;;;;;;;;;5069304;28;20048;-62
2022/08/27 08:36:25;;;;;;;7.20;3.50;;;;;;;;;;5067798;28;20040;-62
2022/08/27 08:38:53;;;;;;;4.43;3.67;;;;;;;;;;5074129;28;20522;-62
2022/08/27 08:41:38;;;;;;;8.77;4.38;;;;;;;;;;5075021;28;20048;-64
2022/08/27 08:44:16;;;;;;;12.70;3.95;;;;;;;;;;5070648;28;20049;-64
2022/08/27 08:46:52;;;;;;;7.78;3.78;;;;;;;;;;5072344;28;20055;-63
2022/08/27 08:49:25;;;;;;;7.28;3.80;;;;;;;;;;5071543;28;20053;-64
2022/08/27 08:51:55;;;;;;;8.15;3.90;;;;;;;;;;5066908;28;20508;-64
2022/08/27 08:54:25;;;;;;;7.63;3.92;;;;;;;;;;5070738;28;20218;-64
2022/08/27 08:57:26;;;;;;;8.30;4.30;;;;;;;;;;5068713;28;20056;-63
2022/08/27 08:59:56;;;;;;;10.23;4.13;;;;;;;;;;5066782;28;20056;-62
2022/08/27 09:02:31;;;;;;;7.80;4.63;;;;;;;;;;5066857;28;20447;-61
2022/08/27 09:05:04;;;;;;;5.97;3.80;;;;;;;;;;5071737;28;20416;-62
2022/08/27 09:07:44;;;;;;;5.93;4.13;;;;;;;;;;5072924;28;20040;-61
2022/08/27 09:10:18;;;;;;;5.57;4.00;;;;;;;;;;5070182;28;20131;-61
2022/08/27 09:12:55;;;;;;;8.40;4.32;;;;;;;;;;5070874;28;20048;-61
2022/08/27 09:15:24;;;;;;;7.70;3.67;;;;;;;;;;5070258;28;20492;-45
2022/08/27 09:18:09;;;;;;;6.32;4.05;;;;;;;;;;5074390;28;20052;-45
2022/08/27 09:20:43;;;;;;;7.38;4.18;;;;;;;;;;5073960;28;20040;-64
2022/08/27 09:23:25;;;;;;;5.63;3.83;;;;;;;;;;5077822;28;20059;-63
2022/08/27 09:25:52;;;;;;;7.00;3.75;;;;;;;;;;5070824;28;20051;-63
2022/08/27 09:31:20;;;;;;;5.38;3.80;;;;;;;;;;5050992;28;20424;-63
2022/08/27 09:33:53;;;;;;;7.35;3.97;;;;;;;;;;5040646;28;20076;-63
2022/08/27 09:36:25;;;;;;;9.00;3.95;;;;;;;;;;5045946;28;20125;-48
2022/08/27 09:39:00;;;;;;;3.78;3.35;;;;;;;;;;5050386;28;20511;-62
2022/08/27 09:41:39;;;;;;;7.18;4.10;;;;;;;;;;5058194;28;20049;-61
2022/08/27 09:44:09;;;;;;;8.30;3.70;;;;;;;;;;5052281;28;20412;-62
2022/08/27 09:46:59;;;;;;;4.97;3.60;;;;;;;;;;5046563;28;20103;-62
2022/08/27 09:49:26;;;;;;;7.10;4.10;;;;;;;;;;5051782;28;20053;-62
2022/08/27 09:52:01;;;;;;;5.22;3.63;;;;;;;;;;5053282;28;20045;-62
2022/08/27 09:54:28;;;;;;;;;;;;;;;;;;5054079;28;20045;-47
2022/08/27 09:56:57;;;;;;;9.25;3.90;;;;;;;;;;5047181;28;19927;-65
2022/08/27 09:59:36;;;;;;;6.93;4.05;;;;;;;;;;5049161;28;20044;-64
2022/08/27 10:02:14;;;;;;;6.70;3.90;;;;;;;;;;5048369;28;20044;-64
2022/08/27 10:04:51;;;;;;;9.23;4.43;;;;;;;;;;5048595;28;20076;-64
2022/08/27 10:07:37;;;;;;;7.10;4.28;;;;;;;;;;5048681;28;20045;-64
2022/08/27 10:10:17;;;;;;;5.28;3.95;;;;;;;;;;5045057;28;20060;-63
2022/08/27 10:12:50;;;;;;;5.82;4.18;;;;;;;;;;5045319;28;20444;-63
2022/08/27 10:15:29;;;;;;;6.93;4.22;;;;;;;;;;5048134;28;20412;-63
2022/08/27 10:18:09;;;;;;;6.85;4.35;;;;;;;;;;5043672;28;20144;-64
2022/08/27 10:20:51;;;;;;;6.85;4.20;;;;;;;;;;5049446;28;20075;-64
2022/08/27 10:23:27;;;;;;;6.25;4.10;;;;;;;;;;5047060;28;20057;-64
2022/08/27 10:26:09;;;;;;;10.48;4.53;;;;;;;;;;5046566;28;20052;-64
2022/08/27 10:28:43;;;;;;;4.65;4.07;;;;;;;;;;5054216;28;20053;-64
2022/08/27 10:32:00;;;;;;;4.85;4.22;;;;;;;;;;5067662;28;20045;-61
2022/08/27 10:34:45;;;;;;;11.20;4.55;;;;;;;;;;5001173;28;20050;-46
2022/08/27 10:37:32;;;;;;;9.45;4.43;;;;;;;;;;5067022;28;20052;-48
2022/08/27 10:40:13;;;;;;;8.13;4.65;;;;;;;;;;5065926;28;20404;-48
2022/08/27 10:43:02;;;;;;;10.27;4.40;;;;;;;;;;5067397;28;20044;-48
2022/08/27 10:45:58;;;;;;;4.60;4.10;;;;;;;;;;5068114;28;20049;-49
2022/08/27 10:48:34;;;;;;;6.32;4.47;;;;;;;;;;5004880;28;21192;-48
2022/08/27 10:51:08;;;;;;;7.78;4.70;;;;;;;;;;5063474;28;20045;-56
2022/08/27 10:53:49;;;;;;;7.57;4.40;;;;;;;;;;5070270;28;20211;-54
2022/08/27 10:56:32;;;;;;;9.75;4.93;;;;;;;;;;5064025;28;20575;-64
2022/08/27 10:59:09;;;;;;;7.10;4.95;;;;;;;;;;5065196;28;20551;-64
2022/08/27 11:01:45;;;;;;;7.60;4.35;;;;;;;;;;5067238;28;20052;-63
2022/08/27 11:04:29;;;;;;;7.93;4.50;;;;;;;;;;5066685;28;20057;-64
2022/08/27 11:06:57;;;;;;;6.95;4.30;;;;;;;;;;5067541;28;20511;-65
2022/08/27 11:09:33;;;;;;;10.82;4.32;;;;;;;;;;5071412;28;20250;-63
2022/08/27 11:12:03;;;;;;;7.80;4.43;;;;;;;;;;5064474;28;20049;-66
2022/08/27 11:14:46;;;;;;;6.00;4.45;;;;;;;;;;5064018;28;20102;-57
2022/08/27 11:17:16;;;;;;;6.75;4.63;;;;;;;;;;5065884;28;20036;-58
2022/08/27 11:19:56;;;;;;;9.20;4.78;;;;;;;;;;5063207;28;20239;-57
2022/08/27 11:22:28;;;;;;;7.25;4.28;;;;;;;;;;5067894;28;20045;-57
2022/08/27 11:25:01;;;;;;;;;;;;;;;;;;5066811;28;20049;-57
2022/08/27 11:27:30;;;;;;;5.40;4.47;;;;;;;;;;5063285;28;20378;-57
2022/08/27 11:30:07;;;;;;;9.30;4.38;;;;;;;;;;5062358;28;20049;-57
2022/08/27 11:32:58;;;;;;;9.95;3.92;;;;;;;;;;5065535;28;20055;-63
2022/08/27 11:35:30;;;;;;;7.40;3.70;;;;;;;;;;5060591;28;20446;-63
2022/08/27 11:38:17;;;;;;;10.30;3.72;;;;;;;;;;5065274;28;20570;-63
2022/08/27 11:40:55;;;;;;;5.43;3.88;;;;;;;;;;5066043;28;20518;-63
2022/08/27 11:43:30;;;;;;;4.45;3.88;;;;;;;;;;5059017;28;20052;-63
2022/08/27 11:45:59;;;;;;;5.65;3.83;;;;;;;;;;5061241;28;20049;-63
2022/08/27 11:48:35;;;;;;;5.32;3.63;;;;;;;;;;5062125;28;20060;-57
2022/08/27 11:51:23;;;;;;;6.85;3.63;;;;;;;;;;5056710;28;20145;-62
2022/08/27 11:53:58;;;;;;;7.10;3.38;;;;;;;;;;5034692;28;20467;-64
2022/08/27 11:56:35;;;;;;;6.90;3.70;;;;;;;;;;5058291;28;20109;-64
2022/08/27 11:59:22;;;;;;;5.18;3.22;;;;;;;;;;5060579;28;20037;-63
2022/08/27 12:01:57;;;;;;;7.55;3.53;;;;;;;;;;5062193;28;20044;-64
2022/08/27 12:04:31;;;;;;;5.82;3.92;;;;;;;;;;5064350;28;20503;-64
2022/08/27 12:07:09;;;;;;;12.93;3.90;;;;;;;;;;5060706;28;20055;-52
2022/08/27 12:09:48;;;;;;;9.40;3.85;;;;;;;;;;5047463;28;20045;-64
2022/08/27 12:12:41;;;;;;;5.65;3.63;;;;;;;;;;5065241;28;20045;-49
2022/08/27 12:15:28;;;;;;;8.65;3.85;;;;;;;;;;5064606;28;20060;-52
2022/08/27 12:18:11;;;;;;;5.28;3.83;;;;;;;;;;5059132;28;20044;-51
2022/08/27 12:20:38;;;;;;;6.60;4.15;;;;;;;;;;5067656;28;20040;-51
2022/08/27 12:23:41;;;;;;;7.30;4.45;;;;;;;;;;5063631;28;20055;-50
2022/08/27 12:26:20;;;;;;;4.90;3.42;;;;;;;;;;5061331;28;20488;-62
2022/08/27 12:29:28;;;;;;;5.72;3.53;;;;;;;;;;5066245;28;20418;-56
2022/08/27 12:32:00;;;;;;;8.68;3.88;;;;;;;;;;5061991;28;20482;-58
2022/08/27 12:34:47;;;;;;;4.90;3.67;;;;;;;;;;5064430;28;20495;-58
2022/08/27 12:37:26;;;;;;;7.40;4.05;;;;;;;;;;5066057;28;20055;-57
2022/08/27 12:40:02;;;;;;;9.02;3.47;;;;;;;;;;5067185;28;20048;-58
2022/08/27 12:42:29;;;;;;;3.90;3.42;;;;;;;;;;5068909;28;20080;-58
2022/08/27 12:44:58;;;;;;;7.10;4.07;;;;;;;;;;5067349;28;20387;-64
2022/08/27 12:47:39;;;;;;;9.82;3.53;;;;;;;;;;5070319;28;20385;-63
2022/08/27 12:50:19;;;;;;;7.75;3.55;;;;;;;;;;5067664;28;20099;-61
2022/08/27 12:52:53;;;;;;;7.00;3.63;;;;;;;;;;5069249;28;20664;-61
2022/08/27 12:55:38;;;;;;;6.53;3.67;;;;;;;;;;5070796;28;20063;-62
2022/08/27 12:58:22;;;;;;;11.13;4.10;;;;;;;;;;5072459;28;20506;-61
2022/08/27 13:01:08;;;;;;;7.45;4.38;;;;;;;;;;5068729;28;20048;-60
2022/08/27 13:03:45;;;;;;;5.03;3.70;;;;;;;;;;5069468;28;20147;-49
2022/08/27 13:06:20;;;;;;;9.30;4.15;;;;;;;;;;5068443;28;20055;-56
2022/08/27 13:08:58;;;;;;;4.80;3.85;;;;;;;;;;5063924;28;20818;-58
2022/08/27 13:11:27;;;;;;;7.75;4.50;;;;;;;;;;5069503;28;20055;-57
2022/08/27 13:14:09;;;;;;;7.95;4.40;;;;;;;;;;5074350;28;20045;-57
2022/08/27 13:16:38;;;;;;;9.93;4.53;;;;;;;;;;5073655;28;20515;-57
2022/08/27 13:19:17;;;;;;;6.35;4.25;;;;;;;;;;5068493;28;20052;-56
2022/08/27 13:21:48;;;;;;;7.57;4.57;;;;;;;;;;5069494;28;20436;-57
2022/08/27 13:24:22;;;;;;;;;;;;;;;;;;5067134;28;20067;-46
2022/08/27 13:26:56;;;;;;;7.45;4.47;;;;;;;;;;5069655;28;20375;-49
2022/08/27 13:29:36;;;;;;;7.25;4.22;;;;;;;;;;5071340;28;20060;-53
2022/08/27 13:32:11;;;;;;;13.80;4.35;;;;;;;;;;5072142;28;20048;-51
2022/08/27 13:34:45;;;;;;;8.90;4.95;;;;;;;;;;5068892;28;20561;-51
2022/08/27 13:37:12;;;;;;;;;;;;;;;;;;5070326;28;20055;-51
2022/08/27 13:39:39;;;;;;;7.90;5.55;;;;;;;;;;5070861;28;19924;-51
2022/08/27 13:42:16;;;;;;;8.50;4.90;;;;;;;;;;5069159;28;20048;-63
2022/08/27 13:44:52;;;;;;;8.32;5.15;;;;;;;;;;5067626;28;20507;-54
2022/08/27 13:47:27;;;;;;;6.38;4.43;;;;;;;;;;5073275;28;20045;-63
2022/08/27 13:50:04;;;;;;;10.32;5.38;;;;;;;;;;5068079;28;20033;-64
2022/08/27 13:54:11;;;;;;;9.73;4.57;;;;;;;;;;5065375;28;20066;-63
2022/08/27 13:55:27;;;;;;;6.47;4.47;;;;;;;;;;5062386;28;20047;-64
2022/08/27 13:58:11;;;;;;;6.18;4.88;;;;;;;;;;5065343;28;20054;-63
2022/08/27 14:00:39;;;;;;;9.18;5.05;;;;;;;;;;5047715;28;20048;-63
2022/08/27 14:03:29;;;;;;;11.02;4.45;;;;;;;;;;5060784;28;20051;-63
2022/08/27 14:05:56;;;;;;;11.07;6.68;;;;;;;;;;5061869;28;20060;-57
2022/08/27 14:08:33;;;;;;;9.30;4.90;;;;;;;;;;5064159;28;20055;-57
2022/08/27 14:11:05;;;;;;;9.07;5.40;;;;;;;;;;5063921;28;20120;-56
2022/08/27 14:13:41;;;;;;;9.88;5.05;;;;;;;;;;5060182;28;20567;-56
2022/08/27 14:16:29;;;;;;;8.95;5.43;;;;;;;;;;5069986;28;20427;-57
2022/08/27 14:19:06;;;;;;;11.38;4.90;;;;;;;;;;5067910;28;20044;-57
2022/08/27 14:21:34;;;;;;;10.13;5.15;;;;;;;;;;5068034;28;20052;-45
2022/08/27 14:24:02;;;;;;;8.50;5.40;;;;;;;;;;5065571;28;20059;-45
2022/08/27 14:26:36;;;;;;;8.70;5.72;;;;;;;;;;5059422;28;20041;-47
2022/08/27 14:29:10;;;;;;;8.45;5.10;;;;;;;;;;5062359;28;20854;-47
2022/08/27 14:31:52;;;;;;;10.43;5.35;;;;;;;;;;5042632;28;20053;-47
2022/08/27 14:34:19;;;;;;;7.78;5.55;;;;;;;;;;5047539;28;20051;-46
2022/08/27 14:36:55;;;;;;;7.63;5.30;;;;;;;;;;5048370;28;20044;-48
2022/08/27 14:39:22;;;;;;;5.95;5.20;;;;;;;;;;5032969;28;20037;-66
2022/08/27 14:41:53;;;;;;;9.35;5.38;;;;;;;;;;5027394;28;20044;-62
2022/08/27 14:44:27;;;;;;;9.52;5.00;;;;;;;;;;5047049;28;20350;-57
2022/08/27 14:46:55;;;;;;;6.68;5.25;;;;;;;;;;5050415;28;20053;-57
2022/08/27 14:49:27;;;;;;;8.27;4.80;;;;;;;;;;5049333;28;20049;-56
2022/08/27 14:52:02;;;;;;;10.40;5.13;;;;;;;;;;5044191;28;20530;-57
2022/08/27 14:54:32;;;;;;;8.70;5.30;;;;;;;;;;5045003;28;20412;-57
2022/08/27 14:57:01;;;;;;;7.00;4.43;;;;;;;;;;5049933;28;20056;-56
2022/08/27 14:59:36;;;;;;;6.88;4.22;;;;;;;;;;5044450;28;20362;-63
2022/08/27 15:02:06;;;;;;;12.15;5.00;;;;;;;;;;5044627;28;20416;-55
2022/08/27 15:04:33;;;;;;;8.68;4.50;;;;;;;;;;5044566;28;20055;-58
2022/08/27 15:07:12;;;;;;;11.20;4.72;;;;;;;;;;5048422;28;20053;-56
2022/08/27 15:09:39;;;;;;;;;;;;;;;;;;5051436;28;20049;-57
2022/08/27 15:12:07;;;;;;;6.57;4.72;;;;;;;;;;5049700;28;20012;-56
2022/08/27 15:14:52;;;;;;;9.63;4.35;;;;;;;;;;5043240;28;20554;-56
2022/08/27 15:17:20;;;;;;;9.93;4.60;;;;;;;;;;5053871;28;20049;-63
2022/08/27 15:20:07;;;;;;;8.48;4.72;;;;;;;;;;5050430;28;20195;-45
2022/08/27 15:22:35;;;;;;;9.00;4.88;;;;;;;;;;5051665;28;20052;-62
2022/08/27 15:25:11;;;;;;;9.85;4.78;;;;;;;;;;5047892;28;20052;-62
2022/08/27 15:27:38;;;;;;;9.90;4.88;;;;;;;;;;5053902;28;20059;-62